sensor_id;sensor_type;location;lat;lon;timestamp;P1;durP1;ratioP1;P2;durP2;ratioP2
10110;SDS011;5095;49.796;9.934;2023-02-11T00:00:50;29.40;;;17.63;;
10110;SDS011;5095;49.796;9.934;2023-02-11T00:03:16;28.13;;;17.97;;
10110;SDS011;5095;49.796;9.934;2023-02-11T00:05:42;27.63;;;17.83;;
10110;SDS011;5095;49.796;9.934;2023-02-11T00:08:08;32.10;;;18.80;;
10110;SDS011;5095;49.796;9.934;2023-02-11T00:10:34;26.93;;;17.13;;
10110;SDS011;5095;49.796;9.934;2023-02-11T00:13:00;28.07;;;18.50;;
10110;SDS011;5095;49.796;9.934;2023-02-11T00:15:26;28.27;;;18.03;;
10110;SDS011;5095;49.796;9.934;2023-02-11T00:17:52;31.20;;;18.77;;
10110;SDS011;5095;49.796;9.934;2023-02-11T00:20:18;30.27;;;18.07;;
10110;SDS011;5095;49.796;9.934;2023-02-11T00:22:44;36.80;;;19.50;;
10110;SDS011;5095;49.796;9.934;2023-02-11T00:25:10;29.63;;;18.60;;
10110;SDS011;5095;49.796;9.934;2023-02-11T00:27:36;32.30;;;18.57;;
10110;SDS011;5095;49.796;9.934;2023-02-11T00:30:02;31.40;;;18.50;;
10110;SDS011;5095;49.796;9.934;2023-02-11T00:32:29;26.63;;;17.63;;
10110;SDS011;5095;49.796;9.934;2023-02-11T00:34:55;29.27;;;18.17;;
10110;SDS011;5095;49.796;9.934;2023-02-11T00:37:21;28.70;;;17.83;;
10110;SDS011;5095;49.796;9.934;2023-02-11T00:39:47;30.60;;;18.30;;
10110;SDS011;5095;49.796;9.934;2023-02-11T00:42:14;31.50;;;17.97;;
10110;SDS011;5095;49.796;9.934;2023-02-11T00:44:40;28.30;;;17.00;;
10110;SDS011;5095;49.796;9.934;2023-02-11T00:47:07;30.07;;;18.90;;
10110;SDS011;5095;49.796;9.934;2023-02-11T00:49:33;29.53;;;18.07;;
10110;SDS011;5095;49.796;9.934;2023-02-11T00:51:59;30.23;;;17.63;;
10110;SDS011;5095;49.796;9.934;2023-02-11T00:54:25;29.27;;;17.77;;
10110;SDS011;5095;49.796;9.934;2023-02-11T00:56:51;30.20;;;17.57;;
10110;SDS011;5095;49.796;9.934;2023-02-11T00:59:17;26.73;;;16.73;;
10110;SDS011;5095;49.796;9.934;2023-02-11T01:01:43;27.33;;;17.03;;
10110;SDS011;5095;49.796;9.934;2023-02-11T01:04:09;31.23;;;17.80;;
10110;SDS011;5095;49.796;9.934;2023-02-11T01:06:35;29.13;;;17.50;;
10110;SDS011;5095;49.796;9.934;2023-02-11T01:09:01;26.33;;;17.57;;
10110;SDS011;5095;49.796;9.934;2023-02-11T01:11:27;28.60;;;17.93;;
10110;SDS011;5095;49.796;9.934;2023-02-11T01:13:53;28.67;;;18.47;;
10110;SDS011;5095;49.796;9.934;2023-02-11T01:16:19;30.37;;;17.37;;
10110;SDS011;5095;49.796;9.934;2023-02-11T01:18:45;29.17;;;17.97;;
10110;SDS011;5095;49.796;9.934;2023-02-11T01:21:11;30.60;;;17.50;;
10110;SDS011;5095;49.796;9.934;2023-02-11T01:23:37;28.40;;;17.57;;
10110;SDS011;5095;49.796;9.934;2023-02-11T01:26:04;28.30;;;17.47;;
10110;SDS011;5095;49.796;9.934;2023-02-11T01:28:30;28.43;;;17.40;;
10110;SDS011;5095;49.796;9.934;2023-02-11T01:30:56;30.93;;;17.50;;
10110;SDS011;5095;49.796;9.934;2023-02-11T01:33:22;31.43;;;18.10;;
10110;SDS011;5095;49.796;9.934;2023-02-11T01:35:48;27.20;;;17.70;;
10110;SDS011;5095;49.796;9.934;2023-02-11T01:38:22;32.00;;;18.73;;
10110;SDS011;5095;49.796;9.934;2023-02-11T01:40:50;32.77;;;17.97;;
10110;SDS011;5095;49.796;9.934;2023-02-11T01:43:16;29.77;;;17.20;;
10110;SDS011;5095;49.796;9.934;2023-02-11T01:48:12;28.97;;;17.13;;
10110;SDS011;5095;49.796;9.934;2023-02-11T01:50:39;29.87;;;17.57;;
10110;SDS011;5095;49.796;9.934;2023-02-11T01:53:06;28.20;;;17.47;;
10110;SDS011;5095;49.796;9.934;2023-02-11T01:55:52;27.57;;;17.13;;
10110;SDS011;5095;49.796;9.934;2023-02-11T01:58:37;25.90;;;16.47;;
10110;SDS011;5095;49.796;9.934;2023-02-11T02:01:04;30.40;;;16.93;;
10110;SDS011;5095;49.796;9.934;2023-02-11T02:03:32;25.60;;;16.03;;
10110;SDS011;5095;49.796;9.934;2023-02-11T02:08:46;27.60;;;15.80;;
10110;SDS011;5095;49.796;9.934;2023-02-11T02:11:15;26.63;;;15.90;;
10110;SDS011;5095;49.796;9.934;2023-02-11T02:13:41;27.63;;;15.90;;
10110;SDS011;5095;49.796;9.934;2023-02-11T02:16:11;26.90;;;16.13;;
10110;SDS011;5095;49.796;9.934;2023-02-11T02:18:46;28.87;;;17.07;;
10110;SDS011;5095;49.796;9.934;2023-02-11T02:37:33;29.57;;;15.53;;
10110;SDS011;5095;49.796;9.934;2023-02-11T02:40:02;25.67;;;15.17;;
10110;SDS011;5095;49.796;9.934;2023-02-11T02:42:29;25.53;;;15.30;;
10110;SDS011;5095;49.796;9.934;2023-02-11T02:44:55;28.30;;;16.40;;
10110;SDS011;5095;49.796;9.934;2023-02-11T02:47:21;27.37;;;16.30;;
10110;SDS011;5095;49.796;9.934;2023-02-11T02:49:47;26.10;;;16.10;;
10110;SDS011;5095;49.796;9.934;2023-02-11T02:57:31;28.97;;;16.30;;
10110;SDS011;5095;49.796;9.934;2023-02-11T03:05:03;25.67;;;16.03;;
10110;SDS011;5095;49.796;9.934;2023-02-11T03:07:39;23.80;;;14.73;;
10110;SDS011;5095;49.796;9.934;2023-02-11T03:10:12;26.03;;;15.53;;
10110;SDS011;5095;49.796;9.934;2023-02-11T03:12:39;23.10;;;15.37;;
10110;SDS011;5095;49.796;9.934;2023-02-11T03:15:06;23.77;;;15.03;;
10110;SDS011;5095;49.796;9.934;2023-02-11T03:17:33;30.13;;;18.47;;
10110;SDS011;5095;49.796;9.934;2023-02-11T03:19:59;25.30;;;16.87;;
10110;SDS011;5095;49.796;9.934;2023-02-11T03:22:29;25.57;;;16.10;;
10110;SDS011;5095;49.796;9.934;2023-02-11T03:24:57;28.13;;;15.83;;
10110;SDS011;5095;49.796;9.934;2023-02-11T03:27:25;23.13;;;14.27;;
10110;SDS011;5095;49.796;9.934;2023-02-11T03:30:08;26.93;;;16.10;;
10110;SDS011;5095;49.796;9.934;2023-02-11T03:32:37;23.90;;;14.87;;
10110;SDS011;5095;49.796;9.934;2023-02-11T03:39:57;25.90;;;15.53;;
10110;SDS011;5095;49.796;9.934;2023-02-11T03:42:25;24.77;;;15.17;;
10110;SDS011;5095;49.796;9.934;2023-02-11T03:44:54;24.47;;;14.30;;
10110;SDS011;5095;49.796;9.934;2023-02-11T03:47:22;25.63;;;15.13;;
10110;SDS011;5095;49.796;9.934;2023-02-11T03:49:50;24.10;;;14.67;;
10110;SDS011;5095;49.796;9.934;2023-02-11T03:52:19;23.23;;;15.50;;
10110;SDS011;5095;49.796;9.934;2023-02-11T03:54:47;24.83;;;14.90;;
10110;SDS011;5095;49.796;9.934;2023-02-11T03:57:14;25.50;;;15.00;;
10110;SDS011;5095;49.796;9.934;2023-02-11T03:59:48;25.20;;;15.30;;
10110;SDS011;5095;49.796;9.934;2023-02-11T04:02:14;26.07;;;15.10;;
10110;SDS011;5095;49.796;9.934;2023-02-11T04:04:40;23.67;;;13.73;;
10110;SDS011;5095;49.796;9.934;2023-02-11T04:07:06;23.17;;;14.90;;
10110;SDS011;5095;49.796;9.934;2023-02-11T04:09:32;23.00;;;14.10;;
10110;SDS011;5095;49.796;9.934;2023-02-11T04:11:59;22.30;;;13.87;;
10110;SDS011;5095;49.796;9.934;2023-02-11T04:14:25;22.77;;;14.17;;
10110;SDS011;5095;49.796;9.934;2023-02-11T04:16:51;26.63;;;14.20;;
10110;SDS011;5095;49.796;9.934;2023-02-11T04:19:17;24.03;;;13.47;;
10110;SDS011;5095;49.796;9.934;2023-02-11T04:21:43;22.87;;;14.37;;
10110;SDS011;5095;49.796;9.934;2023-02-11T04:24:09;21.83;;;14.17;;
10110;SDS011;5095;49.796;9.934;2023-02-11T04:26:35;22.93;;;14.67;;
10110;SDS011;5095;49.796;9.934;2023-02-11T04:29:01;22.83;;;14.10;;
10110;SDS011;5095;49.796;9.934;2023-02-11T04:31:27;24.17;;;14.07;;
10110;SDS011;5095;49.796;9.934;2023-02-11T04:33:53;23.67;;;14.60;;
10110;SDS011;5095;49.796;9.934;2023-02-11T04:36:19;22.50;;;14.40;;
10110;SDS011;5095;49.796;9.934;2023-02-11T04:38:45;24.80;;;14.00;;
10110;SDS011;5095;49.796;9.934;2023-02-11T04:41:11;24.40;;;13.77;;
10110;SDS011;5095;49.796;9.934;2023-02-11T04:43:37;22.17;;;13.13;;
10110;SDS011;5095;49.796;9.934;2023-02-11T04:46:03;24.17;;;13.97;;
10110;SDS011;5095;49.796;9.934;2023-02-11T04:48:29;23.57;;;13.50;;
10110;SDS011;5095;49.796;9.934;2023-02-11T04:50:55;20.33;;;13.37;;
10110;SDS011;5095;49.796;9.934;2023-02-11T04:53:21;21.60;;;14.53;;
10110;SDS011;5095;49.796;9.934;2023-02-11T04:55:47;23.57;;;15.00;;
10110;SDS011;5095;49.796;9.934;2023-02-11T04:58:14;21.47;;;13.23;;
10110;SDS011;5095;49.796;9.934;2023-02-11T05:00:40;23.17;;;14.23;;
10110;SDS011;5095;49.796;9.934;2023-02-11T05:03:06;21.50;;;13.20;;
10110;SDS011;5095;49.796;9.934;2023-02-11T05:05:32;21.87;;;13.77;;
10110;SDS011;5095;49.796;9.934;2023-02-11T05:07:58;20.03;;;13.10;;
10110;SDS011;5095;49.796;9.934;2023-02-11T05:10:24;22.50;;;13.83;;
10110;SDS011;5095;49.796;9.934;2023-02-11T05:12:50;18.83;;;12.90;;
10110;SDS011;5095;49.796;9.934;2023-02-11T05:15:16;19.13;;;12.03;;
10110;SDS011;5095;49.796;9.934;2023-02-11T05:17:42;22.13;;;12.90;;
10110;SDS011;5095;49.796;9.934;2023-02-11T05:20:08;20.83;;;12.87;;
10110;SDS011;5095;49.796;9.934;2023-02-11T05:22:34;20.97;;;13.43;;
10110;SDS011;5095;49.796;9.934;2023-02-11T05:25:00;20.43;;;12.90;;
10110;SDS011;5095;49.796;9.934;2023-02-11T05:27:26;20.00;;;13.10;;
10110;SDS011;5095;49.796;9.934;2023-02-11T05:29:52;23.10;;;13.23;;
10110;SDS011;5095;49.796;9.934;2023-02-11T05:32:18;19.90;;;13.27;;
10110;SDS011;5095;49.796;9.934;2023-02-11T05:34:44;21.73;;;12.83;;
10110;SDS011;5095;49.796;9.934;2023-02-11T05:37:10;22.90;;;12.57;;
10110;SDS011;5095;49.796;9.934;2023-02-11T05:39:36;20.23;;;13.13;;
10110;SDS011;5095;49.796;9.934;2023-02-11T05:42:02;19.80;;;12.73;;
10110;SDS011;5095;49.796;9.934;2023-02-11T05:44:28;21.57;;;12.87;;
10110;SDS011;5095;49.796;9.934;2023-02-11T05:46:54;19.97;;;12.63;;
10110;SDS011;5095;49.796;9.934;2023-02-11T05:49:20;22.70;;;13.63;;
10110;SDS011;5095;49.796;9.934;2023-02-11T05:51:46;20.60;;;13.77;;
10110;SDS011;5095;49.796;9.934;2023-02-11T05:54:12;20.37;;;13.27;;
10110;SDS011;5095;49.796;9.934;2023-02-11T05:56:38;22.03;;;13.93;;
10110;SDS011;5095;49.796;9.934;2023-02-11T05:59:04;19.50;;;12.40;;
10110;SDS011;5095;49.796;9.934;2023-02-11T06:01:30;23.53;;;13.53;;
10110;SDS011;5095;49.796;9.934;2023-02-11T06:03:56;22.80;;;14.10;;
10110;SDS011;5095;49.796;9.934;2023-02-11T06:06:22;19.77;;;13.77;;
10110;SDS011;5095;49.796;9.934;2023-02-11T06:08:48;24.57;;;13.80;;
10110;SDS011;5095;49.796;9.934;2023-02-11T06:11:15;23.50;;;14.23;;
10110;SDS011;5095;49.796;9.934;2023-02-11T06:13:41;21.83;;;14.30;;
10110;SDS011;5095;49.796;9.934;2023-02-11T06:16:07;23.00;;;14.33;;
10110;SDS011;5095;49.796;9.934;2023-02-11T06:18:33;23.70;;;14.90;;
10110;SDS011;5095;49.796;9.934;2023-02-11T06:20:59;23.37;;;14.37;;
10110;SDS011;5095;49.796;9.934;2023-02-11T06:23:25;24.90;;;15.43;;
10110;SDS011;5095;49.796;9.934;2023-02-11T06:25:51;26.23;;;14.80;;
10110;SDS011;5095;49.796;9.934;2023-02-11T06:28:18;25.00;;;15.30;;
10110;SDS011;5095;49.796;9.934;2023-02-11T06:30:44;26.50;;;15.67;;
10110;SDS011;5095;49.796;9.934;2023-02-11T06:33:10;22.37;;;14.70;;
10110;SDS011;5095;49.796;9.934;2023-02-11T06:35:39;27.60;;;14.60;;
10110;SDS011;5095;49.796;9.934;2023-02-11T06:38:05;24.10;;;15.50;;
10110;SDS011;5095;49.796;9.934;2023-02-11T06:40:31;23.70;;;15.80;;
10110;SDS011;5095;49.796;9.934;2023-02-11T06:42:57;25.50;;;15.10;;
10110;SDS011;5095;49.796;9.934;2023-02-11T06:45:23;27.47;;;14.77;;
10110;SDS011;5095;49.796;9.934;2023-02-11T06:47:50;25.60;;;15.70;;
10110;SDS011;5095;49.796;9.934;2023-02-11T06:50:16;27.27;;;15.83;;
10110;SDS011;5095;49.796;9.934;2023-02-11T06:52:42;25.23;;;14.83;;
10110;SDS011;5095;49.796;9.934;2023-02-11T06:55:08;25.47;;;15.00;;
10110;SDS011;5095;49.796;9.934;2023-02-11T06:57:34;23.10;;;14.47;;
10110;SDS011;5095;49.796;9.934;2023-02-11T07:00:01;22.67;;;15.23;;
10110;SDS011;5095;49.796;9.934;2023-02-11T07:02:27;24.37;;;14.83;;
10110;SDS011;5095;49.796;9.934;2023-02-11T07:04:53;26.43;;;15.67;;
10110;SDS011;5095;49.796;9.934;2023-02-11T07:07:19;25.37;;;15.60;;
10110;SDS011;5095;49.796;9.934;2023-02-11T07:09:45;25.87;;;15.73;;
10110;SDS011;5095;49.796;9.934;2023-02-11T07:12:11;25.77;;;15.90;;
10110;SDS011;5095;49.796;9.934;2023-02-11T07:14:37;30.20;;;16.80;;
10110;SDS011;5095;49.796;9.934;2023-02-11T07:17:03;23.87;;;14.30;;
10110;SDS011;5095;49.796;9.934;2023-02-11T07:19:29;24.50;;;15.63;;
10110;SDS011;5095;49.796;9.934;2023-02-11T07:21:55;29.27;;;16.90;;
10110;SDS011;5095;49.796;9.934;2023-02-11T07:24:21;25.00;;;16.43;;
10110;SDS011;5095;49.796;9.934;2023-02-11T07:26:48;27.93;;;16.37;;
10110;SDS011;5095;49.796;9.934;2023-02-11T07:29:14;30.87;;;17.23;;
10110;SDS011;5095;49.796;9.934;2023-02-11T07:31:40;27.60;;;16.37;;
10110;SDS011;5095;49.796;9.934;2023-02-11T07:34:06;23.70;;;15.27;;
10110;SDS011;5095;49.796;9.934;2023-02-11T07:36:32;29.43;;;16.93;;
10110;SDS011;5095;49.796;9.934;2023-02-11T07:38:58;23.93;;;16.00;;
10110;SDS011;5095;49.796;9.934;2023-02-11T07:41:27;24.63;;;16.63;;
10110;SDS011;5095;49.796;9.934;2023-02-11T07:43:56;25.17;;;15.93;;
10110;SDS011;5095;49.796;9.934;2023-02-11T07:46:23;25.00;;;15.83;;
10110;SDS011;5095;49.796;9.934;2023-02-11T07:48:50;28.97;;;16.40;;
10110;SDS011;5095;49.796;9.934;2023-02-11T07:51:26;27.50;;;16.30;;
10110;SDS011;5095;49.796;9.934;2023-02-11T07:53:56;32.73;;;17.17;;
10110;SDS011;5095;49.796;9.934;2023-02-11T07:56:22;25.03;;;16.10;;
10110;SDS011;5095;49.796;9.934;2023-02-11T07:58:51;27.10;;;15.37;;
10110;SDS011;5095;49.796;9.934;2023-02-11T08:01:19;26.17;;;16.63;;
10110;SDS011;5095;49.796;9.934;2023-02-11T08:03:46;24.90;;;15.33;;
10110;SDS011;5095;49.796;9.934;2023-02-11T08:06:13;23.97;;;15.97;;
10110;SDS011;5095;49.796;9.934;2023-02-11T08:08:45;24.30;;;15.73;;
10110;SDS011;5095;49.796;9.934;2023-02-11T08:11:16;24.07;;;15.40;;
10110;SDS011;5095;49.796;9.934;2023-02-11T08:13:45;24.83;;;16.03;;
10110;SDS011;5095;49.796;9.934;2023-02-11T08:16:18;22.37;;;15.13;;
10110;SDS011;5095;49.796;9.934;2023-02-11T08:18:44;27.03;;;15.67;;
10110;SDS011;5095;49.796;9.934;2023-02-11T08:21:10;24.17;;;16.30;;
10110;SDS011;5095;49.796;9.934;2023-02-11T08:23:37;25.23;;;16.83;;
10110;SDS011;5095;49.796;9.934;2023-02-11T08:26:04;25.93;;;15.97;;
10110;SDS011;5095;49.796;9.934;2023-02-11T08:28:30;22.77;;;15.10;;
10110;SDS011;5095;49.796;9.934;2023-02-11T08:30:56;25.43;;;15.00;;
10110;SDS011;5095;49.796;9.934;2023-02-11T08:33:22;25.57;;;15.70;;
10110;SDS011;5095;49.796;9.934;2023-02-11T08:35:48;23.50;;;14.73;;
10110;SDS011;5095;49.796;9.934;2023-02-11T08:38:14;22.80;;;14.93;;
10110;SDS011;5095;49.796;9.934;2023-02-11T08:40:40;22.20;;;15.03;;
10110;SDS011;5095;49.796;9.934;2023-02-11T08:43:06;23.80;;;15.33;;
10110;SDS011;5095;49.796;9.934;2023-02-11T08:45:33;23.53;;;15.43;;
10110;SDS011;5095;49.796;9.934;2023-02-11T08:47:59;24.33;;;15.17;;
10110;SDS011;5095;49.796;9.934;2023-02-11T08:50:25;26.10;;;15.63;;
10110;SDS011;5095;49.796;9.934;2023-02-11T08:52:52;26.47;;;14.73;;
10110;SDS011;5095;49.796;9.934;2023-02-11T08:55:18;22.60;;;14.83;;
10110;SDS011;5095;49.796;9.934;2023-02-11T08:57:44;25.83;;;15.73;;
10110;SDS011;5095;49.796;9.934;2023-02-11T09:00:10;23.87;;;15.37;;
10110;SDS011;5095;49.796;9.934;2023-02-11T09:02:36;24.07;;;15.20;;
10110;SDS011;5095;49.796;9.934;2023-02-11T09:05:02;28.90;;;14.93;;
10110;SDS011;5095;49.796;9.934;2023-02-11T09:07:28;25.53;;;15.07;;
10110;SDS011;5095;49.796;9.934;2023-02-11T09:09:54;24.17;;;15.47;;
10110;SDS011;5095;49.796;9.934;2023-02-11T09:12:20;24.50;;;14.97;;
10110;SDS011;5095;49.796;9.934;2023-02-11T09:14:46;24.87;;;15.20;;
10110;SDS011;5095;49.796;9.934;2023-02-11T09:17:12;25.83;;;18.23;;
10110;SDS011;5095;49.796;9.934;2023-02-11T09:19:38;23.93;;;15.73;;
10110;SDS011;5095;49.796;9.934;2023-02-11T09:22:04;25.13;;;15.33;;
10110;SDS011;5095;49.796;9.934;2023-02-11T09:24:30;25.23;;;14.93;;
10110;SDS011;5095;49.796;9.934;2023-02-11T09:26:56;22.63;;;14.63;;
10110;SDS011;5095;49.796;9.934;2023-02-11T09:29:22;26.23;;;15.80;;
10110;SDS011;5095;49.796;9.934;2023-02-11T09:31:48;24.30;;;15.27;;
10110;SDS011;5095;49.796;9.934;2023-02-11T09:34:14;25.10;;;15.70;;
10110;SDS011;5095;49.796;9.934;2023-02-11T09:36:40;27.73;;;15.33;;
10110;SDS011;5095;49.796;9.934;2023-02-11T09:39:08;22.47;;;13.27;;
10110;SDS011;5095;49.796;9.934;2023-02-11T09:44:03;25.43;;;16.00;;
10110;SDS011;5095;49.796;9.934;2023-02-11T09:46:32;21.17;;;14.60;;
10110;SDS011;5095;49.796;9.934;2023-02-11T09:48:59;22.60;;;14.87;;
10110;SDS011;5095;49.796;9.934;2023-02-11T09:53:53;28.17;;;14.77;;
10110;SDS011;5095;49.796;9.934;2023-02-11T09:56:21;26.25;;;18.98;;
10110;SDS011;5095;49.796;9.934;2023-02-11T09:58:47;25.17;;;16.40;;
10110;SDS011;5095;49.796;9.934;2023-02-11T10:11:33;25.33;;;15.90;;
10110;SDS011;5095;49.796;9.934;2023-02-11T10:16:56;22.70;;;14.33;;
10110;SDS011;5095;49.796;9.934;2023-02-11T10:22:11;18.97;;;12.23;;
10110;SDS011;5095;49.796;9.934;2023-02-11T10:24:40;23.13;;;13.90;;
10110;SDS011;5095;49.796;9.934;2023-02-11T10:27:15;20.53;;;13.30;;
10110;SDS011;5095;49.796;9.934;2023-02-11T10:29:55;25.87;;;17.03;;
10110;SDS011;5095;49.796;9.934;2023-02-11T10:32:28;20.27;;;13.87;;
10110;SDS011;5095;49.796;9.934;2023-02-11T10:34:57;22.70;;;15.45;;
10110;SDS011;5095;49.796;9.934;2023-02-11T10:37:25;18.80;;;12.07;;
10110;SDS011;5095;49.796;9.934;2023-02-11T10:39:51;18.53;;;12.07;;
10110;SDS011;5095;49.796;9.934;2023-02-11T10:42:17;25.87;;;14.77;;
10110;SDS011;5095;49.796;9.934;2023-02-11T10:44:59;23.53;;;14.33;;
10110;SDS011;5095;49.796;9.934;2023-02-11T10:47:27;23.35;;;15.57;;
10110;SDS011;5095;49.796;9.934;2023-02-11T10:49:56;23.07;;;14.33;;
10110;SDS011;5095;49.796;9.934;2023-02-11T10:52:27;25.20;;;14.10;;
10110;SDS011;5095;49.796;9.934;2023-02-11T10:55:27;20.60;;;14.30;;
10110;SDS011;5095;49.796;9.934;2023-02-11T10:57:54;24.43;;;14.70;;
10110;SDS011;5095;49.796;9.934;2023-02-11T11:00:39;27.00;;;15.80;;
10110;SDS011;5095;49.796;9.934;2023-02-11T11:03:06;22.80;;;14.77;;
10110;SDS011;5095;49.796;9.934;2023-02-11T11:05:46;25.63;;;14.93;;
10110;SDS011;5095;49.796;9.934;2023-02-11T11:08:13;20.60;;;13.67;;
10110;SDS011;5095;49.796;9.934;2023-02-11T11:10:41;23.03;;;14.37;;
10110;SDS011;5095;49.796;9.934;2023-02-11T11:18:37;23.73;;;15.33;;
10110;SDS011;5095;49.796;9.934;2023-02-11T11:21:04;24.97;;;14.60;;
10110;SDS011;5095;49.796;9.934;2023-02-11T11:23:31;25.30;;;15.37;;
10110;SDS011;5095;49.796;9.934;2023-02-11T11:26:06;22.00;;;13.50;;
10110;SDS011;5095;49.796;9.934;2023-02-11T11:28:40;23.70;;;14.27;;
10110;SDS011;5095;49.796;9.934;2023-02-11T11:31:11;21.50;;;14.10;;
10110;SDS011;5095;49.796;9.934;2023-02-11T11:33:39;25.43;;;15.13;;
10110;SDS011;5095;49.796;9.934;2023-02-11T11:36:10;28.80;;;15.17;;
10110;SDS011;5095;49.796;9.934;2023-02-11T11:38:42;21.70;;;15.20;;
10110;SDS011;5095;49.796;9.934;2023-02-11T11:43:53;25.20;;;15.03;;
10110;SDS011;5095;49.796;9.934;2023-02-11T11:46:26;23.13;;;14.13;;
10110;SDS011;5095;49.796;9.934;2023-02-11T11:48:53;21.37;;;14.63;;
10110;SDS011;5095;49.796;9.934;2023-02-11T11:51:21;24.13;;;15.47;;
10110;SDS011;5095;49.796;9.934;2023-02-11T11:54:00;22.57;;;14.87;;
10110;SDS011;5095;49.796;9.934;2023-02-11T11:56:26;28.27;;;17.80;;
10110;SDS011;5095;49.796;9.934;2023-02-11T11:58:54;22.90;;;15.33;;
10110;SDS011;5095;49.796;9.934;2023-02-11T12:06:45;24.27;;;13.83;;
10110;SDS011;5095;49.796;9.934;2023-02-11T12:20:52;31.33;;;14.07;;
10110;SDS011;5095;49.796;9.934;2023-02-11T12:26:00;24.83;;;14.10;;
10110;SDS011;5095;49.796;9.934;2023-02-11T12:31:01;22.87;;;14.17;;
10110;SDS011;5095;49.796;9.934;2023-02-11T12:43:37;24.83;;;14.80;;
10110;SDS011;5095;49.796;9.934;2023-02-11T12:54:51;24.37;;;13.07;;
10110;SDS011;5095;49.796;9.934;2023-02-11T12:56:59;30.20;;;17.58;;
10110;SDS011;5095;49.796;9.934;2023-02-11T13:01:53;22.20;;;14.27;;
10110;SDS011;5095;49.796;9.934;2023-02-11T13:04:34;22.87;;;14.77;;
10110;SDS011;5095;49.796;9.934;2023-02-11T13:07:03;22.13;;;14.93;;
10110;SDS011;5095;49.796;9.934;2023-02-11T13:09:37;17.33;;;12.50;;
10110;SDS011;5095;49.796;9.934;2023-02-11T13:12:06;21.97;;;14.30;;
10110;SDS011;5095;49.796;9.934;2023-02-11T13:14:51;22.03;;;13.90;;
10110;SDS011;5095;49.796;9.934;2023-02-11T13:17:21;22.10;;;13.47;;
10110;SDS011;5095;49.796;9.934;2023-02-11T13:19:51;19.93;;;13.63;;
10110;SDS011;5095;49.796;9.934;2023-02-11T13:22:27;19.60;;;12.83;;
10110;SDS011;5095;49.796;9.934;2023-02-11T13:35:41;21.13;;;13.20;;
10110;SDS011;5095;49.796;9.934;2023-02-11T13:40:39;24.20;;;14.53;;
10110;SDS011;5095;49.796;9.934;2023-02-11T13:43:05;23.27;;;16.67;;
10110;SDS011;5095;49.796;9.934;2023-02-11T13:45:37;24.70;;;14.40;;
10110;SDS011;5095;49.796;9.934;2023-02-11T13:48:04;21.40;;;13.97;;
10110;SDS011;5095;49.796;9.934;2023-02-11T13:50:34;20.03;;;13.47;;
10110;SDS011;5095;49.796;9.934;2023-02-11T13:53:02;21.23;;;12.30;;
10110;SDS011;5095;49.796;9.934;2023-02-11T13:55:31;21.80;;;13.40;;
10110;SDS011;5095;49.796;9.934;2023-02-11T14:19:39;21.87;;;12.33;;
10110;SDS011;5095;49.796;9.934;2023-02-11T14:25:02;22.90;;;13.73;;
10110;SDS011;5095;49.796;9.934;2023-02-11T14:27:30;20.03;;;12.30;;
10110;SDS011;5095;49.796;9.934;2023-02-11T14:37:46;18.00;;;11.80;;
10110;SDS011;5095;49.796;9.934;2023-02-11T14:42:53;18.27;;;11.93;;
10110;SDS011;5095;49.796;9.934;2023-02-11T14:45:22;20.87;;;12.57;;
10110;SDS011;5095;49.796;9.934;2023-02-11T14:47:59;20.67;;;12.53;;
10110;SDS011;5095;49.796;9.934;2023-02-11T14:50:39;18.13;;;12.77;;
10110;SDS011;5095;49.796;9.934;2023-02-11T14:53:06;19.13;;;12.03;;
10110;SDS011;5095;49.796;9.934;2023-02-11T14:55:33;19.10;;;11.27;;
10110;SDS011;5095;49.796;9.934;2023-02-11T14:58:20;17.83;;;11.80;;
10110;SDS011;5095;49.796;9.934;2023-02-11T15:00:48;18.60;;;12.13;;
10110;SDS011;5095;49.796;9.934;2023-02-11T15:03:31;19.70;;;12.17;;
10110;SDS011;5095;49.796;9.934;2023-02-11T15:06:01;17.03;;;11.83;;
10110;SDS011;5095;49.796;9.934;2023-02-11T15:08:28;29.13;;;13.30;;
10110;SDS011;5095;49.796;9.934;2023-02-11T15:10:55;21.93;;;12.50;;
10110;SDS011;5095;49.796;9.934;2023-02-11T15:13:22;21.30;;;11.83;;
10110;SDS011;5095;49.796;9.934;2023-02-11T15:15:56;20.23;;;11.90;;
10110;SDS011;5095;49.796;9.934;2023-02-11T15:18:30;23.47;;;13.53;;
10110;SDS011;5095;49.796;9.934;2023-02-11T15:20:56;26.17;;;12.30;;
10110;SDS011;5095;49.796;9.934;2023-02-11T15:23:24;19.13;;;12.90;;
10110;SDS011;5095;49.796;9.934;2023-02-11T15:25:51;17.43;;;10.33;;
10110;SDS011;5095;49.796;9.934;2023-02-11T15:28:23;20.80;;;12.13;;
10110;SDS011;5095;49.796;9.934;2023-02-11T15:30:59;17.80;;;11.70;;
10110;SDS011;5095;49.796;9.934;2023-02-11T15:33:25;15.90;;;12.00;;
10110;SDS011;5095;49.796;9.934;2023-02-11T15:35:54;19.00;;;11.80;;
10110;SDS011;5095;49.796;9.934;2023-02-11T15:38:21;18.10;;;11.93;;
10110;SDS011;5095;49.796;9.934;2023-02-11T15:40:52;20.30;;;12.20;;
10110;SDS011;5095;49.796;9.934;2023-02-11T15:43:19;20.20;;;12.77;;
10110;SDS011;5095;49.796;9.934;2023-02-11T15:48:21;19.23;;;12.50;;
10110;SDS011;5095;49.796;9.934;2023-02-11T15:50:53;29.27;;;14.43;;
10110;SDS011;5095;49.796;9.934;2023-02-11T15:53:21;12.87;;;7.73;;
10110;SDS011;5095;49.796;9.934;2023-02-11T15:55:49;22.13;;;13.73;;
10110;SDS011;5095;49.796;9.934;2023-02-11T15:58:16;18.97;;;13.10;;
10110;SDS011;5095;49.796;9.934;2023-02-11T16:00:49;19.83;;;13.37;;
10110;SDS011;5095;49.796;9.934;2023-02-11T16:03:21;18.97;;;11.57;;
10110;SDS011;5095;49.796;9.934;2023-02-11T16:05:47;21.07;;;13.20;;
10110;SDS011;5095;49.796;9.934;2023-02-11T16:08:27;20.17;;;13.83;;
10110;SDS011;5095;49.796;9.934;2023-02-11T16:13:22;21.43;;;13.60;;
10110;SDS011;5095;49.796;9.934;2023-02-11T16:15:52;21.77;;;13.67;;
10110;SDS011;5095;49.796;9.934;2023-02-11T16:20:51;20.20;;;12.83;;
10110;SDS011;5095;49.796;9.934;2023-02-11T16:23:28;26.40;;;15.17;;
10110;SDS011;5095;49.796;9.934;2023-02-11T16:26:01;22.67;;;14.53;;
10110;SDS011;5095;49.796;9.934;2023-02-11T16:28:29;23.23;;;14.67;;
10110;SDS011;5095;49.796;9.934;2023-02-11T16:30:55;21.57;;;13.73;;
10110;SDS011;5095;49.796;9.934;2023-02-11T16:33:22;24.70;;;16.27;;
10110;SDS011;5095;49.796;9.934;2023-02-11T16:35:48;28.20;;;20.70;;
10110;SDS011;5095;49.796;9.934;2023-02-11T16:38:15;23.37;;;14.97;;
10110;SDS011;5095;49.796;9.934;2023-02-11T16:40:41;18.83;;;13.43;;
10110;SDS011;5095;49.796;9.934;2023-02-11T16:43:10;20.93;;;14.27;;
10110;SDS011;5095;49.796;9.934;2023-02-11T16:45:36;21.57;;;14.07;;
10110;SDS011;5095;49.796;9.934;2023-02-11T16:48:04;24.73;;;14.67;;
10110;SDS011;5095;49.796;9.934;2023-02-11T16:50:31;23.30;;;14.33;;
10110;SDS011;5095;49.796;9.934;2023-02-11T16:52:57;25.03;;;16.07;;
10110;SDS011;5095;49.796;9.934;2023-02-11T16:55:23;21.50;;;13.40;;
10110;SDS011;5095;49.796;9.934;2023-02-11T16:57:49;21.80;;;14.70;;
10110;SDS011;5095;49.796;9.934;2023-02-11T17:00:16;23.67;;;14.47;;
10110;SDS011;5095;49.796;9.934;2023-02-11T17:02:42;23.20;;;15.70;;
10110;SDS011;5095;49.796;9.934;2023-02-11T17:05:14;26.53;;;15.40;;
10110;SDS011;5095;49.796;9.934;2023-02-11T17:07:41;28.03;;;16.20;;
10110;SDS011;5095;49.796;9.934;2023-02-11T17:10:14;20.50;;;14.07;;
10110;SDS011;5095;49.796;9.934;2023-02-11T17:12:40;24.00;;;15.90;;
10110;SDS011;5095;49.796;9.934;2023-02-11T17:15:06;24.83;;;16.27;;
10110;SDS011;5095;49.796;9.934;2023-02-11T17:17:33;25.10;;;16.53;;
10110;SDS011;5095;49.796;9.934;2023-02-11T17:19:59;24.90;;;16.10;;
10110;SDS011;5095;49.796;9.934;2023-02-11T17:22:25;26.57;;;13.93;;